Time;durP1;ratioP1;P1;durP2;ratioP2;P2;SDS_P1;SDS_P2;PMS_P1;PMS_P2;Temp;Humidity;BMP_temperature;BMP_pressure;BME280_temperature;BME280_humidity;BME280_pressure;Samples;Min_cycle;Max_cycle;Signal;HPM_P1;HPM_P2
2023/07/30 00:06:06;;;;;;;2.30;1.67;;;29.70;33.80;;;;;;21088769;28;20040;-57
2023/07/30 00:16:06;;;;;;;3.67;2.85;;;29.60;33.80;;;;;;21087690;28;20048;-57
2023/07/30 00:26:07;;;;;;;3.85;1.73;;;29.60;33.80;;;;;;21087773;28;20048;-58
2023/07/30 00:36:08;;;;;;;2.65;2.20;;;29.50;34.10;;;;;;21085940;28;20048;-58
2023/07/30 00:46:09;;;;;;;2.40;1.80;;;29.50;34.50;;;;;;21084684;28;20494;-59
2023/07/30 00:56:10;;;;;;;4.35;2.88;;;29.20;35.20;;;;;;21085696;28;20511;-56
2023/07/30 01:06:10;;;;;;;4.68;3.85;;;29.10;35.40;;;;;;21084643;28;20047;-57
2023/07/30 01:16:11;;;;;;;4.55;2.17;;;28.80;35.90;;;;;;21083949;28;20065;-57
2023/07/30 01:26:20;;;;;;;4.40;2.83;;;28.70;35.80;;;;;;21083253;28;20044;-56
2023/07/30 01:36:21;;;;;;;9.98;8.35;;;28.60;36.10;;;;;;21082800;28;20427;-57
2023/07/30 01:46:22;;;;;;;8.05;6.00;;;28.50;36.40;;;;;;21081877;28;20044;-57
2023/07/30 01:56:23;;;;;;;10.60;7.82;;;28.40;36.40;;;;;;21080934;28;20043;-58
2023/07/30 02:06:23;;;;;;;;;;;28.40;36.60;;;;;;21080692;28;20040;-57
2023/07/30 02:16:24;;;;;;;4.97;3.20;;;28.20;36.60;;;;;;21078682;28;19920;-56
2023/07/30 02:26:24;;;;;;;;;;;28.20;36.80;;;;;;21079345;28;20565;-57
2023/07/30 02:36:25;;;;;;;5.93;4.27;;;28.00;37.10;;;;;;21079429;28;19920;-58
2023/07/30 02:46:26;;;;;;;;;;;27.90;37.60;;;;;;21079281;28;20048;-57
2023/07/30 02:56:27;;;;;;;4.68;3.00;;;27.80;37.60;;;;;;21078744;28;19920;-58
2023/07/30 03:06:27;;;;;;;6.63;5.47;;;27.90;37.80;;;;;;21076518;28;20074;-57
2023/07/30 03:16:28;;;;;;;7.70;4.13;;;27.90;37.70;;;;;;21076481;28;20303;-56
2023/07/30 03:26:29;;;;;;;6.72;4.95;;;27.70;38.30;;;;;;21075853;28;20481;-57
2023/07/30 03:36:30;;;;;;;3.70;1.85;;;27.50;39.20;;;;;;21080089;28;20052;-56
2023/07/30 03:46:30;;;;;;;5.37;2.30;;;27.40;39.30;;;;;;21090670;28;20044;-57
2023/07/30 03:56:31;;;;;;;4.97;1.70;;;27.00;40.30;;;;;;21090131;28;20105;-57
2023/07/30 04:06:32;;;;;;;5.90;2.57;;;26.70;41.00;;;;;;21087626;28;20040;-57
2023/07/30 04:16:32;;;;;;;4.10;1.90;;;26.60;41.20;;;;;;21089936;28;20501;-56
2023/07/30 04:26:33;;;;;;;4.47;2.07;;;26.20;41.70;;;;;;21088176;28;20040;-57
2023/07/30 04:36:34;;;;;;;4.87;2.00;;;26.00;42.20;;;;;;21086225;28;20135;-56
2023/07/30 04:46:35;;;;;;;3.30;2.00;;;26.00;42.20;;;;;;21086486;28;20040;-56
2023/07/30 04:56:36;;;;;;;4.73;2.10;;;26.00;42.00;;;;;;21084818;28;20070;-57
2023/07/30 05:06:36;;;;;;;3.93;2.60;;;25.70;42.30;;;;;;21085103;28;20484;-57
2023/07/30 05:16:37;;;;;;;2.27;1.60;;;25.60;42.20;;;;;;21082821;28;20189;-57
2023/07/30 05:26:38;;;;;;;3.50;1.87;;;25.50;42.40;;;;;;21083413;28;20047;-57
2023/07/30 05:36:39;;;;;;;3.30;1.97;;;25.50;42.60;;;;;;21082363;28;20078;-57
2023/07/30 05:46:39;;;;;;;4.10;3.10;;;25.40;42.50;;;;;;21080345;28;20071;-56
2023/07/30 05:56:40;;;;;;;4.03;1.87;;;25.20;42.90;;;;;;21080509;28;20083;-56
2023/07/30 06:06:41;;;;;;;5.77;2.53;;;25.20;43.10;;;;;;21079194;28;20122;-56
2023/07/30 06:16:43;;;;;;;3.40;1.57;;;25.20;43.20;;;;;;21078800;28;20531;-57
2023/07/30 06:26:44;;;;;;;7.30;4.43;;;25.30;42.90;;;;;;21079609;28;20424;-56
2023/07/30 06:36:44;;;;;;;3.23;1.70;;;25.30;42.70;;;;;;21079180;28;20044;-56
2023/07/30 06:46:45;;;;;;;3.67;1.93;;;25.30;42.90;;;;;;21077602;28;20080;-57
2023/07/30 06:56:46;;;;;;;3.27;1.67;;;25.70;42.30;;;;;;21078363;28;20082;-57
2023/07/30 07:06:46;;;;;;;2.60;1.60;;;26.70;40.50;;;;;;21077825;28;20040;-57
2023/07/30 07:16:48;;;;;;;4.50;1.90;;;27.60;38.20;;;;;;21092228;28;20139;-57
2023/07/30 07:26:49;;;;;;;3.55;2.00;;;28.20;36.90;;;;;;21092860;28;20051;-56
2023/07/30 07:36:50;;;;;;;2.58;1.75;;;28.90;35.30;;;;;;21091471;28;20409;-58
2023/07/30 07:46:50;;;;;;;2.72;1.90;;;29.40;34.60;;;;;;21090030;28;20051;-57
2023/07/30 07:56:51;;;;;;;4.55;1.88;;;29.60;34.00;;;;;;21089812;28;20466;-57
2023/07/30 08:06:52;;;;;;;6.70;2.83;;;29.90;33.70;;;;;;21088345;28;20043;-57
2023/07/30 08:16:52;;;;;;;6.07;2.30;;;30.30;33.20;;;;;;21087647;28;20082;-56
2023/07/30 08:26:53;;;;;;;2.67;1.70;;;30.60;32.70;;;;;;21087945;28;20601;-56
2023/07/30 08:36:54;;;;;;;3.13;2.13;;;30.70;32.40;;;;;;21086548;28;20095;-58
2023/07/30 08:46:55;;;;;;;3.42;2.50;;;30.90;32.20;;;;;;21086667;28;20505;-56
2023/07/30 08:56:56;;;;;;;5.03;2.25;;;31.40;31.60;;;;;;21085495;28;20047;-56
2023/07/30 09:06:56;;;;;;;5.18;1.92;;;31.50;31.50;;;;;;21085174;28;20044;-58
2023/07/30 09:17:00;;;;;;;2.90;2.05;;;31.70;30.80;;;;;;21083032;28;20048;-57
2023/07/30 09:27:02;;;;;;;7.72;2.13;;;31.90;30.80;;;;;;21083094;28;20094;-58
2023/07/30 09:37:03;;;;;;;3.45;1.88;;;32.10;30.40;;;;;;21081515;28;20055;-57
2023/07/30 09:47:07;;;;;;;2.67;1.50;;;32.30;30.00;;;;;;21081869;28;20044;-57
2023/07/30 09:57:08;;;;;;;2.95;2.00;;;32.40;30.00;;;;;;21080825;28;20051;-58
2023/07/30 10:07:16;;;;;;;3.53;2.22;;;32.70;29.80;;;;;;21079801;28;20048;-57
2023/07/30 10:17:17;;;;;;;4.53;1.60;;;32.60;29.70;;;;;;21081193;28;20056;-57
2023/07/30 10:27:27;;;;;;;2.47;1.52;;;32.60;29.80;;;;;;21078217;28;20047;-57
2023/07/30 10:37:28;;;;;;;4.10;1.75;;;32.70;29.80;;;;;;21079815;28;20485;-57
2023/07/30 10:47:29;;;;;;;3.70;1.70;;;33.10;29.40;;;;;;21087626;28;20393;-61
2023/07/30 10:57:31;;;;;;;2.20;1.38;;;33.10;29.60;;;;;;21093611;28;20044;-57
2023/07/30 11:07:32;;;;;;;6.18;3.83;;;33.30;28.60;;;;;;21092706;28;20131;-57
2023/07/30 11:17:33;;;;;;;4.28;1.55;;;33.40;28.00;;;;;;21093881;28;20075;-56
2023/07/30 11:27:50;;;;;;;7.63;6.03;;;33.60;28.20;;;;;;21092787;28;20397;-57
2023/07/30 11:37:51;;;;;;;4.70;3.30;;;33.80;27.60;;;;;;21092234;28;20083;-56
2023/07/30 11:47:52;;;;;;;9.68;7.35;;;33.80;27.20;;;;;;21089458;28;20066;-57
2023/07/30 11:57:52;;;;;;;2.25;1.50;;;33.90;27.30;;;;;;21087102;28;20120;-56
2023/07/30 12:07:53;;;;;;;2.25;1.40;;;34.00;27.00;;;;;;21088636;28;20052;-57
2023/07/30 12:17:54;;;;;;;3.05;1.40;;;34.00;26.60;;;;;;21086916;28;20048;-56
2023/07/30 12:27:55;;;;;;;2.30;1.40;;;34.10;26.70;;;;;;21087930;28;20504;-57
2023/07/30 12:37:55;;;;;;;2.67;1.50;;;34.20;26.30;;;;;;21088272;28;20040;-58
2023/07/30 12:47:56;;;;;;;2.65;1.27;;;34.50;25.70;;;;;;21085552;28;20090;-57
2023/07/30 12:57:57;;;;;;;4.35;1.50;;;34.70;25.30;;;;;;21086037;28;20396;-56
2023/07/30 13:07:58;;;;;;;2.80;1.10;;;35.00;25.50;;;;;;21085133;28;20047;-57
2023/07/30 13:17:58;;;;;;;1.50;1.10;;;35.10;25.20;;;;;;21084731;28;20158;-55
2023/07/30 13:27:59;;;;;;;1.70;1.08;;;35.20;24.60;;;;;;21083359;28;20105;-56
2023/07/30 13:38:00;;;;;;;2.70;1.25;;;35.20;24.30;;;;;;21082271;28;20044;-56
2023/07/30 13:48:01;;;;;;;1.52;1.00;;;35.40;24.30;;;;;;21082048;28;20043;-56
2023/07/30 13:58:03;;;;;;;3.30;1.63;;;35.60;23.50;;;;;;21081299;28;20055;-57
2023/07/30 14:08:04;;;;;;;2.83;1.15;;;35.80;23.30;;;;;;21080153;28;20059;-55
2023/07/30 14:18:05;;;;;;;2.05;1.30;;;35.70;22.70;;;;;;21079338;28;20044;-57
2023/07/30 14:28:05;;;;;;;3.13;1.70;;;35.80;21.90;;;;;;21079472;28;20075;-57
2023/07/30 14:38:06;;;;;;;1.60;1.17;;;36.00;21.50;;;;;;21078980;28;20084;-56
2023/07/30 14:48:07;;;;;;;3.67;1.35;;;36.00;21.50;;;;;;21079125;28;20040;-57
2023/07/30 14:58:08;;;;;;;1.87;1.10;;;36.20;21.10;;;;;;21077601;28;20450;-57
2023/07/30 15:08:09;;;;;;;2.05;1.30;;;36.30;20.90;;;;;;21078353;28;20798;-57
2023/07/30 15:18:10;;;;;;;4.95;1.88;;;36.30;21.00;;;;;;21078001;28;20102;-57
2023/07/30 15:28:11;;;;;;;2.20;1.30;;;36.40;19.90;;;;;;21077032;28;20044;-57
2023/07/30 15:38:12;;;;;;;1.85;1.35;;;36.40;19.50;;;;;;21090765;28;20051;-56
2023/07/30 15:48:13;;;;;;;4.18;1.63;;;36.20;19.20;;;;;;21091942;28;20043;-57
2023/07/30 15:58:14;;;;;;;2.13;1.73;;;36.20;19.50;;;;;;21089965;28;20062;-56
2023/07/30 16:08:15;;;;;;;2.90;2.20;;;36.30;19.20;;;;;;21089717;28;20055;-57
2023/07/30 16:18:16;;;;;;;2.83;1.92;;;36.20;19.60;;;;;;21087616;28;20043;-57
2023/07/30 16:28:16;;;;;;;3.10;2.40;;;36.30;20.10;;;;;;21087082;28;20123;-57
2023/07/30 16:38:19;;;;;;;2.30;2.10;;;36.10;21.10;;;;;;21086578;28;20052;-56
2023/07/30 16:48:19;;;;;;;2.58;2.17;;;36.00;22.30;;;;;;21085447;28;20078;-57
2023/07/30 16:58:20;;;;;;;3.40;2.47;;;36.10;22.80;;;;;;21084567;28;20079;-56
2023/07/30 17:08:21;;;;;;;4.10;3.58;;;36.00;23.40;;;;;;21083442;28;20063;-56
2023/07/30 17:18:22;;;;;;;3.55;2.22;;;35.80;23.90;;;;;;21081814;28;20123;-56
2023/07/30 17:28:23;;;;;;;4.70;2.03;;;35.70;24.30;;;;;;21082542;28;20539;-56
2023/07/30 17:38:23;;;;;;;2.90;2.20;;;35.70;24.40;;;;;;21074598;28;20063;-58
2023/07/30 17:48:26;;;;;;;3.65;2.15;;;35.60;24.70;;;;;;21081288;28;20476;-56
2023/07/30 17:58:26;;;;;;;2.90;1.90;;;35.50;24.90;;;;;;21078309;28;20048;-56
2023/07/30 18:08:27;;;;;;;3.10;2.10;;;35.30;24.90;;;;;;21079124;28;20063;-56
2023/07/30 18:18:28;;;;;;;4.25;2.13;;;35.30;25.10;;;;;;21079477;28;20075;-57
2023/07/30 18:28:29;;;;;;;3.45;2.13;;;35.10;24.80;;;;;;21076980;28;20056;-57
2023/07/30 18:38:29;;;;;;;2.75;1.98;;;35.00;25.00;;;;;;21077147;28;20573;-57
2023/07/30 18:48:31;;;;;;;5.00;1.88;;;34.80;25.20;;;;;;21078101;28;20078;-56
2023/07/30 18:58:32;;;;;;;2.95;2.15;;;34.60;25.60;;;;;;21076426;28;20048;-57
2023/07/30 19:08:33;;;;;;;2.92;2.22;;;34.60;26.00;;;;;;21085572;28;20541;-57
2023/07/30 19:18:33;;;;;;;4.45;2.30;;;34.40;26.30;;;;;;21092194;28;20075;-57
2023/07/30 19:28:36;;;;;;;2.63;2.40;;;34.20;26.70;;;;;;21089460;28;20048;-59
2023/07/30 19:38:37;;;;;;;3.03;2.50;;;34.00;26.80;;;;;;21090030;28;20139;-58
2023/07/30 19:48:38;;;;;;;4.32;2.80;;;33.80;27.00;;;;;;21089291;28;20104;-56
2023/07/30 19:58:38;;;;;;;2.95;2.58;;;33.60;27.40;;;;;;21088862;28;20072;-57
2023/07/30 20:08:40;;;;;;;4.97;2.65;;;33.50;27.80;;;;;;21088310;28;20087;-57
2023/07/30 20:18:41;;;;;;;4.00;2.83;;;33.30;27.90;;;;;;21087954;28;20404;-58
2023/07/30 20:28:44;;;;;;;5.18;2.85;;;33.30;28.10;;;;;;21086562;28;20044;-57
2023/07/30 20:38:45;;;;;;;4.78;3.58;;;33.00;28.60;;;;;;21086005;28;20051;-56
2023/07/30 20:48:45;;;;;;;4.20;3.15;;;32.70;28.60;;;;;;21086197;28;20523;-57
2023/07/30 20:58:46;;;;;;;5.65;2.88;;;32.50;28.70;;;;;;21084301;28;20051;-56
2023/07/30 21:08:47;;;;;;;6.20;3.13;;;32.30;28.70;;;;;;21084039;28;20390;-56
2023/07/30 21:18:48;;;;;;;4.38;2.95;;;32.20;28.50;;;;;;21084075;28;20051;-57
2023/07/30 21:28:51;;;;;;;4.70;2.83;;;32.10;28.80;;;;;;21082192;28;20043;-56
2023/07/30 21:38:52;;;;;;;5.32;3.47;;;31.80;29.20;;;;;;21082360;28;20504;-57
2023/07/30 21:48:52;;;;;;;4.53;3.22;;;31.70;29.10;;;;;;21081879;28;20440;-56
2023/07/30 21:58:53;;;;;;;5.47;3.60;;;31.70;29.40;;;;;;21079371;28;20044;-57
2023/07/30 22:08:54;;;;;;;4.15;2.88;;;31.50;29.50;;;;;;21078927;28;20059;-58
2023/07/30 22:18:55;;;;;;;3.20;2.60;;;31.60;29.10;;;;;;21079972;28;20036;-56
2023/07/30 22:28:55;;;;;;;6.78;6.03;;;31.50;29.20;;;;;;21077854;28;20044;-57
2023/07/30 22:38:56;;;;;;;4.93;4.03;;;31.40;29.60;;;;;;21079892;28;20560;-58
2023/07/30 22:48:57;;;;;;;3.00;2.10;;;31.10;30.30;;;;;;21094545;28;20051;-57
2023/07/30 22:58:58;;;;;;;4.57;2.97;;;31.10;29.60;;;;;;21095134;28;20077;-57
2023/07/30 23:08:59;;;;;;;3.33;2.10;;;31.00;29.60;;;;;;21092838;28;20117;-56
2023/07/30 23:18:59;;;;;;;4.00;2.80;;;30.90;29.40;;;;;;21093853;28;20050;-56
2023/07/30 23:29:00;;;;;;;4.32;2.97;;;30.90;29.40;;;;;;21092960;28;20040;-56
2023/07/30 23:39:01;;;;;;;3.08;1.73;;;30.80;29.50;;;;;;21092504;28;20044;-56
2023/07/30 23:49:01;;;;;;;3.08;2.20;;;30.70;29.20;;;;;;21090193;28;20047;-58
2023/07/30 23:59:02;;;;;;;4.45;2.60;;;30.70;29.00;;;;;;21089872;28;20466;-56
